Upper Falls, MD (21156)

3:51 PM EDT on March 27, 2015 (GMT -0400)
Rumsey Island Joppa, MD | | Change Station
CLOSE
Current Station
Personal Weather Station
Location: Joppa, MD
Elevation: 16 ft
Nearby Weather Stations

Elev 16 ft 39.41 °N, 76.36 °W | Updated 10 minutes ago

Overcast
Overcast
47.4 °F
Feels Like 47 °F
N
0.0
Wind Variable Wind from WNW
Gusts 4.0 mph

Today
High -- | Low -- °F
--% Chance of Precip.
Yesterday
High -- | Low -- °F
Precip. -- in
6:58 AM 7:24 PM
First Quarter, 55% visible
Pressure 29.78 in
Visibility 10.0 miles
Clouds Mostly Cloudy 4400 ft
Mostly Cloudy 5000 ft
Windchill 47 °F
Dew Point 34 °F
Humidity 61%
Rainfall 0.46 in
Snow Depth Not available.
UV 3 out of 12
Pollen 3.80 out of 12
Air Quality Not available.
Flu Activity Not available.
METAR KMTN 271945Z 35005KT 10SM BKN044 BKN050 08/00 A2978

More Conditions Fewer Conditions

Pressure 29.78 in
Visibility 10.0 miles
Clouds Mostly Cloudy 4400 ft
Mostly Cloudy 5000 ft
Windchill 47 °F
Dew Point 34 °F
Humidity 61%
Rainfall 0.46 in
Snow Depth Not available.
UV 3 out of 12
Pollen 3.80 out of 12
Air Quality Not available.
Flu Activity Not available.
METAR KMTN 271945Z 35005KT 10SM BKN044 BKN050 08/00 A2978

More Conditions Fewer Conditions

10-Day Weather Forecast

Almanac

Astronomy

Mar. 27, 2015 Rise Set
Actual Time
Civil Twilight
Nautical Twilight
Astronomical Twilight
Moon
Length of Visible Light
Length of Day
Tomorrow will be .
, % of the Moon is Illuminated

Today's Extremes

State Highs State Lows

Community

WunderPhotos

Upload Photos

1,808,799 photos uploaded!

WunderBlogs® & News

Nearby

Air Quality

  Air Quality AQ Index Pollutant
Not available.

Snow Depth

Station Depth Elevation

Earthquake Activity

City Distance Mag. Time & Date
Minimum magnitude displayed is 2.5.

Coastal Water Temperatures

Place Temperature

Stations

Nearby Weather Stations

Station Location Temp. Windchill Dew Point Humidity Wind Precip. Elev Updated Type